createdAt,value
2022-08-25T00:00:29.382Z,0.00
2022-08-25T00:05:32.448Z,0.00
2022-08-25T00:10:30.903Z,0.00
2022-08-25T00:15:31.762Z,0.00
2022-08-25T00:20:32.530Z,0.00
2022-08-25T00:25:33.282Z,0.00
2022-08-25T00:30:34.037Z,0.00
2022-08-25T00:35:34.752Z,0.00
2022-08-25T00:40:42.686Z,0.00
2022-08-25T00:45:36.465Z,0.00
2022-08-25T00:50:37.203Z,0.00
2022-08-25T00:55:37.914Z,0.00
2022-08-25T01:00:38.623Z,0.00
2022-08-25T01:05:39.390Z,0.00
2022-08-25T01:10:40.163Z,0.00
2022-08-25T01:15:40.872Z,0.00
2022-08-25T01:20:41.612Z,0.00
2022-08-25T01:25:42.360Z,0.00
2022-08-25T01:30:43.113Z,0.00
2022-08-25T01:35:43.914Z,0.00
2022-08-25T01:40:44.600Z,0.00
2022-08-25T01:45:45.412Z,0.00
2022-08-25T01:50:46.096Z,0.00
2022-08-25T01:55:46.824Z,0.00
2022-08-25T02:00:47.785Z,0.00
2022-08-25T02:05:48.727Z,0.00
2022-08-25T02:10:49.339Z,0.00
2022-08-25T02:15:50.070Z,0.00
2022-08-25T02:20:50.748Z,0.00
2022-08-25T02:25:51.552Z,0.00
2022-08-25T02:30:52.309Z,0.00
2022-08-25T02:35:53.883Z,0.00
2022-08-25T02:40:53.585Z,0.00
2022-08-25T02:45:54.402Z,0.00
2022-08-25T02:50:55.151Z,0.00
2022-08-25T02:55:55.882Z,0.00
2022-08-25T03:00:56.656Z,0.00
2022-08-25T03:05:57.404Z,0.00
2022-08-25T03:10:58.170Z,0.00
2022-08-25T03:15:58.912Z,0.00
2022-08-25T03:21:00.763Z,0.00
2022-08-25T03:26:00.715Z,0.00
2022-08-25T03:31:01.431Z,1.00
2022-08-25T03:36:01.678Z,2.00
2022-08-25T03:41:02.416Z,6.00
2022-08-25T03:46:03.195Z,2.00
2022-08-25T03:51:03.874Z,4.00
2022-08-25T03:56:04.533Z,22.00
2022-08-25T04:01:05.280Z,39.00
2022-08-25T04:06:05.937Z,64.00
2022-08-25T04:11:06.590Z,86.00
2022-08-25T04:16:07.314Z,113.00
2022-08-25T04:21:07.945Z,148.00
2022-08-25T04:26:08.635Z,181.00
2022-08-25T04:31:09.442Z,233.00
2022-08-25T04:36:12.207Z,274.00
2022-08-25T04:41:10.716Z,288.00
2022-08-25T04:46:11.439Z,414.00
2022-08-25T04:51:12.079Z,485.00
2022-08-25T04:56:12.724Z,582.00
2022-08-25T05:01:13.745Z,630.00
2022-08-25T05:06:16.050Z,725.00
2022-08-25T05:11:14.532Z,725.00
2022-08-25T05:16:15.218Z,775.00
2022-08-25T05:21:15.708Z,943.00
2022-08-25T05:26:19.719Z,1076.00
2022-08-25T05:31:17.112Z,1062.00
2022-08-25T05:36:17.729Z,1288.00
2022-08-25T05:41:18.570Z,1174.00
2022-08-25T05:46:19.393Z,1093.00
2022-08-25T05:51:20.240Z,1127.00
2022-08-25T05:56:20.856Z,1023.00
2022-08-25T06:01:21.652Z,1148.00
2022-08-25T06:06:22.428Z,1181.00
2022-08-25T06:11:23.123Z,1078.00
2022-08-25T06:16:23.925Z,1477.00
2022-08-25T06:21:24.565Z,1464.00
2022-08-25T06:26:25.280Z,1322.00
2022-08-25T06:31:25.973Z,1579.00
2022-08-25T06:36:26.650Z,1689.00
2022-08-25T06:41:36.992Z,1894.00
2022-08-25T06:46:36.095Z,2126.00
2022-08-25T06:51:28.411Z,2375.00
2022-08-25T06:56:29.063Z,2194.00
2022-08-25T07:01:29.804Z,1982.00
2022-08-25T07:06:30.439Z,1713.00
2022-08-25T07:11:31.093Z,1571.00
2022-08-25T07:16:31.839Z,2521.00
2022-08-25T07:21:33.582Z,2969.00
2022-08-25T07:26:37.896Z,2838.00
2022-08-25T07:31:34.793Z,2969.00
2022-08-25T07:36:34.559Z,2394.00
2022-08-25T07:41:35.219Z,2970.00
2022-08-25T07:46:35.914Z,2649.00
2022-08-25T07:51:36.550Z,2239.00
2022-08-25T07:56:38.106Z,3772.00
2022-08-25T08:01:38.640Z,3282.00
2022-08-25T08:06:38.504Z,3028.00
2022-08-25T08:11:42.556Z,3018.00
2022-08-25T08:16:40.731Z,3963.00
2022-08-25T08:21:40.157Z,4357.00
2022-08-25T08:26:57.846Z,4285.00
2022-08-25T08:31:48.798Z,5437.00
2022-08-25T08:36:42.894Z,3953.00
2022-08-25T08:42:07.672Z,5763.00
2022-08-25T08:46:44.161Z,4597.00
2022-08-25T08:51:43.819Z,5007.00
2022-08-25T08:56:45.294Z,6527.00
2022-08-25T09:01:45.099Z,5835.00
2022-08-25T09:06:45.809Z,5017.00
2022-08-25T09:11:46.427Z,7457.00
2022-08-25T09:16:47.167Z,6429.00
2022-08-25T09:21:47.833Z,4504.00
2022-08-25T09:26:48.550Z,5885.00
2022-08-25T09:31:49.242Z,5578.00
2022-08-25T09:36:49.915Z,5767.00
2022-08-25T09:41:51.225Z,5737.00
2022-08-25T09:46:51.222Z,6492.00
2022-08-25T09:51:52.751Z,2976.00
2022-08-25T09:56:52.464Z,7685.00
2022-08-25T10:01:53.189Z,4126.00
2022-08-25T10:06:53.846Z,1127.00
2022-08-25T10:11:57.499Z,6312.00
2022-08-25T10:16:55.413Z,8716.00
2022-08-25T10:21:56.105Z,7013.00
2022-08-25T10:26:56.978Z,5955.00
2022-08-25T10:31:57.721Z,3589.00
2022-08-25T10:36:58.345Z,7040.00
2022-08-25T10:41:59.106Z,5380.00
2022-08-25T10:47:00.139Z,6795.00
2022-08-25T10:52:00.867Z,6011.00
2022-08-25T10:57:02.034Z,4589.00
2022-08-25T11:02:02.355Z,5769.00
2022-08-25T11:07:03.129Z,7760.00
2022-08-25T11:12:03.502Z,5858.00
2022-08-25T11:17:04.208Z,3272.00
2022-08-25T11:22:04.946Z,3415.00
2022-08-25T11:27:05.583Z,7402.00
2022-08-25T11:32:06.279Z,8197.00
2022-08-25T11:37:06.916Z,5330.00
2022-08-25T11:42:07.480Z,3948.00
2022-08-25T11:47:11.197Z,8631.00
2022-08-25T11:52:09.752Z,7386.00
2022-08-25T11:57:09.466Z,1481.00
2022-08-25T12:02:10.146Z,8948.00
2022-08-25T12:07:10.765Z,4593.00
2022-08-25T12:12:11.452Z,3062.00
2022-08-25T12:17:12.291Z,2792.00
2022-08-25T12:22:12.960Z,2563.00
2022-08-25T12:27:13.632Z,3105.00
2022-08-25T12:32:14.293Z,2281.00
2022-08-25T12:37:14.986Z,3068.00
2022-08-25T12:42:15.663Z,2278.00
2022-08-25T12:47:16.341Z,7902.00
2022-08-25T12:52:17.292Z,8778.00
2022-08-25T12:57:17.980Z,5652.00
2022-08-25T13:02:19.578Z,2238.00
2022-08-25T13:07:19.395Z,4071.00
2022-08-25T13:12:20.046Z,5111.00
2022-08-25T13:17:20.732Z,8091.00
2022-08-25T13:22:21.379Z,7386.00
2022-08-25T13:27:22.520Z,5669.00
2022-08-25T13:32:22.700Z,5951.00
2022-08-25T13:37:23.440Z,6084.00
2022-08-25T13:42:28.667Z,6903.00
2022-08-25T13:47:25.638Z,4071.00
2022-08-25T13:52:29.100Z,2448.00
2022-08-25T13:57:30.237Z,2122.00
2022-08-25T14:02:26.668Z,5637.00
2022-08-25T14:07:27.347Z,5789.00
2022-08-25T14:12:28.917Z,5020.00
2022-08-25T14:17:39.152Z,6180.00
2022-08-25T14:22:30.102Z,2990.00
2022-08-25T14:27:29.763Z,5984.00
2022-08-25T14:32:30.419Z,4689.00
2022-08-25T14:37:32.445Z,1770.00
2022-08-25T14:42:31.666Z,4009.00
2022-08-25T14:47:32.345Z,3787.00
2022-08-25T14:52:32.995Z,5544.00
2022-08-25T14:57:33.479Z,4351.00
2022-08-25T15:02:37.580Z,3997.00
2022-08-25T15:07:34.735Z,3973.00
2022-08-25T15:12:46.666Z,4053.00
2022-08-25T15:17:36.964Z,4268.00
2022-08-25T15:22:36.808Z,2827.00
2022-08-25T15:27:37.475Z,1575.00
2022-08-25T15:32:38.144Z,565.00
2022-08-25T15:37:39.036Z,2768.00
2022-08-25T15:42:42.963Z,4480.00
2022-08-25T15:47:41.247Z,3544.00
2022-08-25T15:52:48.566Z,2962.00
2022-08-25T15:57:42.418Z,2654.00
2022-08-25T16:02:42.084Z,2578.00
2022-08-25T16:07:42.718Z,2434.00
2022-08-25T16:12:43.402Z,2255.00
2022-08-25T16:17:46.951Z,2193.00
2022-08-25T16:22:46.054Z,2166.00
2022-08-25T16:27:45.262Z,1959.00
2022-08-25T16:32:46.378Z,1976.00
2022-08-25T16:37:47.142Z,1775.00
2022-08-25T16:42:47.858Z,1648.00
2022-08-25T16:47:48.494Z,1525.00
2022-08-25T16:52:49.358Z,1421.00
2022-08-25T16:57:50.110Z,1328.00
2022-08-25T17:02:50.839Z,1222.00
2022-08-25T17:07:51.620Z,1133.00
2022-08-25T17:12:52.326Z,1037.00
2022-08-25T17:17:52.955Z,942.00
2022-08-25T17:22:53.719Z,857.00
2022-08-25T17:27:57.538Z,794.00
2022-08-25T17:32:55.390Z,726.00
2022-08-25T17:37:55.960Z,634.00
2022-08-25T17:43:04.733Z,532.00
2022-08-25T17:48:04.345Z,406.00
2022-08-25T17:52:58.032Z,287.00
2022-08-25T17:57:58.771Z,216.00
2022-08-25T18:02:59.507Z,163.00
2022-08-25T18:08:00.289Z,124.00
2022-08-25T18:13:00.996Z,92.00
2022-08-25T18:18:01.768Z,63.00
2022-08-25T18:23:02.219Z,43.00
2022-08-25T18:28:03.184Z,24.00
2022-08-25T18:33:03.381Z,11.00
2022-08-25T18:38:04.178Z,4.00
2022-08-25T18:43:05.602Z,1.00
2022-08-25T18:48:05.994Z,0.00
2022-08-25T18:53:06.380Z,0.00
2022-08-25T18:58:07.416Z,0.00
2022-08-25T19:03:07.755Z,0.00
2022-08-25T19:08:08.382Z,0.00
2022-08-25T19:13:08.776Z,0.00
2022-08-25T19:18:10.771Z,0.00
2022-08-25T19:23:10.262Z,0.00
2022-08-25T19:28:11.802Z,0.00
2022-08-25T19:33:11.933Z,0.00
2022-08-25T19:38:33.579Z,0.00
2022-08-25T19:43:14.343Z,0.00
2022-08-25T19:48:14.087Z,0.00
2022-08-25T19:53:14.897Z,0.00
2022-08-25T19:58:15.734Z,0.00
2022-08-25T20:03:16.122Z,0.00
2022-08-25T20:08:16.976Z,0.00
2022-08-25T20:13:18.583Z,0.00
2022-08-25T20:18:18.592Z,0.00
2022-08-25T20:23:19.435Z,0.00
2022-08-25T20:28:20.365Z,0.00
2022-08-25T20:33:23.098Z,0.00
2022-08-25T20:38:21.773Z,0.00
2022-08-25T20:43:22.480Z,0.00
2022-08-25T20:48:23.237Z,0.00
2022-08-25T20:53:25.220Z,0.00
2022-08-25T20:58:24.566Z,0.00
2022-08-25T21:03:25.280Z,0.00
2022-08-25T21:08:27.050Z,0.00
2022-08-25T21:13:26.499Z,0.00
2022-08-25T21:18:31.436Z,0.00
2022-08-25T21:23:27.864Z,0.00
2022-08-25T21:28:28.635Z,0.00
2022-08-25T21:33:29.368Z,0.00
2022-08-25T21:38:30.170Z,0.00
2022-08-25T21:43:30.990Z,0.00
2022-08-25T21:48:31.661Z,0.00
2022-08-25T21:53:32.446Z,0.00
2022-08-25T21:58:33.181Z,0.00
2022-08-25T22:03:33.897Z,0.00
2022-08-25T22:08:34.632Z,0.00
2022-08-25T22:13:35.287Z,0.00
2022-08-25T22:18:36.031Z,0.00
2022-08-25T22:23:44.129Z,0.00
2022-08-25T22:28:38.709Z,0.00
2022-08-25T22:33:38.509Z,0.00
2022-08-25T22:38:39.210Z,0.00
2022-08-25T22:43:39.576Z,0.00
2022-08-25T22:48:40.313Z,0.00
2022-08-25T22:53:41.258Z,0.00
2022-08-25T22:58:41.986Z,0.00
2022-08-25T23:03:44.387Z,0.00
2022-08-25T23:08:43.445Z,0.00
2022-08-25T23:13:44.264Z,0.00
2022-08-25T23:18:45.079Z,0.00
2022-08-25T23:23:45.778Z,0.00
2022-08-25T23:28:46.544Z,0.00
2022-08-25T23:33:47.287Z,0.00
2022-08-25T23:38:51.505Z,0.00
2022-08-25T23:43:48.917Z,0.00
2022-08-25T23:48:49.308Z,0.00
2022-08-25T23:53:50.077Z,0.00
2022-08-25T23:58:50.811Z,0.00
